Share

Oelrichs, SD (57763)

1:29 PM MDT on April 24, 2014 (GMT -0600)
Chadron Municipal (KCDR) Elev 3297 ft | 42.84 °N, 103.10 °W | Change Station

Current weather conditions updated 36 minutes ago

Clear
Clear
65 °F
Feels Like 65 °F
N
17
Wind Variable Wind from WNW
Gusts 26 mph
Sunrise 5:56 AM
Sunset 7:46 PM
Moon Waning Crescent

Today is forecast to be Cooler than yesterday.

Pressure 29.84 in
Visibility 10.0 miles
Clouds Clear
Dew Point 22 °F
Humidity 19%
Rainfall 0.00 in
Snow Depth Not available.
UV 10 out of 16
Pollen 11.50 out of 12
Air Quality Not available.
Flu Activity Sporadic
METAR KCDR 241853Z AUTO 30015G23KT 10SM CLR 18/M06 A2985 RMK AO2 SLP104 T01831056

More Conditions Fewer Conditions

Pressure 29.84 in
Visibility 10.0 miles
Clouds Clear
Dew Point 22 °F
Humidity 19%
Rainfall 0.00 in
Snow Depth Not available.
UV 10 out of 16
Pollen 11.50 out of 12
Air Quality Not available.
Flu Activity Sporadic
METAR KCDR 241853Z AUTO 30015G23KT 10SM CLR 18/M06 A2985 RMK AO2 SLP104 T01831056

More Conditions Fewer Conditions

10-Day Weather Forecast

Almanac

Astronomy

Apr. 24, 2014 Rise Set
Actual Time 5:56 AM MDT 7:46 PM MDT
Civil Twilight 5:26 AM MDT 8:16 PM MDT
Nautical Twilight 4:49 AM MDT 8:54 PM MDT
Astronomical Twilight 4:09 AM MDT 9:34 PM MDT
Moon 3:17 AM MDT 2:56 PM MDT
Length of Visible Light 14h 50m
Length of Day
13h 49m
Tomorrow will be 2m 41s longer.
Waning Crescent, 23% of the Moon is Illuminated
Today
Waning Crescent
Apr 29
New
May 6
First Quarter
May 14
Full
May 21
Last Quarter

Today's Extremes

State Highs State Lows

Community

  • Sunset at Apalachicola Bay, Florida
    Sunset at Apalachicola Bay, Florida
  • Clouds mov'n in
    Clouds mov'n in
  • Stacked
    Stacked
  • clouds approaching Red Sox Nation
    clouds approaching Red Sox Nation
  • Balance
    Balance

WunderPhotos

Upload Photos

1,704,699 photos uploaded!

Nearby

Snow Depth

Station Depth Elevation
Blind Park 9 in 6890 ft
North Rapid Creek 10 in 6130 ft

Coastal Water Temperatures

Place Temperature
No Stations Reporting

Earthquake Activity

City Distance Mag. Time & Date
No recent earthquake activity has been reported nearby.
Minimum magnitude displayed is 2.5.

Nearby Weather Stations

Station Location Temp. Dew Point Humidity Wind Precip. Elev Updated Type
HADS BEAVER CREEK NEAR BUFFALO GAP 2S SD, Buffalo Gap, SD 62 °F - - North  at  - 0.00 in / hr 3149 ft 12:45 PM MDT MADIS
HADS WHITE RIVER NEAR NEBRASKA-SOUTH SD, Oglala, SD 62 °F - - North  at  - 0.00 in / hr 3028 ft 12:45 PM MDT MADIS

Show More Stations Show Fewer Stations

What do you think?

We're not finished. Please let us know what you like, what you don't like, and what you are still missing.